createdAt,value
2023-03-21T00:00:18.779Z,8.36
2023-03-21T00:02:46.304Z,8.37
2023-03-21T00:05:15.781Z,8.28
2023-03-21T00:07:42.305Z,8.29
2023-03-21T00:10:16.579Z,8.33
2023-03-21T00:12:44.774Z,8.29
2023-03-21T00:15:12.828Z,8.30
2023-03-21T00:17:39.751Z,8.27
2023-03-21T00:20:15.071Z,8.23
2023-03-21T00:22:42.242Z,8.22
2023-03-21T00:25:10.415Z,8.24
2023-03-21T00:27:53.283Z,8.16
2023-03-21T00:30:23.973Z,8.16
2023-03-21T00:32:56.600Z,8.20
2023-03-21T00:35:57.872Z,8.20
2023-03-21T00:38:11.096Z,8.22
2023-03-21T00:40:43.805Z,8.23
2023-03-21T00:43:19.428Z,8.19
2023-03-21T00:45:46.477Z,8.18
2023-03-21T00:48:13.311Z,8.17
2023-03-21T00:50:40.235Z,8.19
2023-03-21T00:53:07.082Z,8.12
2023-03-21T00:55:33.914Z,8.13
2023-03-21T00:58:02.369Z,8.07
2023-03-21T01:00:29.767Z,8.08
2023-03-21T01:03:02.609Z,8.12
2023-03-21T01:09:28.088Z,7.94
2023-03-21T01:11:54.476Z,8.04
2023-03-21T01:14:23.694Z,7.96
2023-03-21T01:16:54.139Z,7.93
2023-03-21T01:19:29.094Z,7.87
2023-03-21T01:21:57.869Z,7.84
2023-03-21T01:24:24.200Z,7.78
2023-03-21T01:26:50.811Z,7.74
2023-03-21T01:29:17.260Z,7.73
2023-03-21T01:31:43.623Z,7.70
2023-03-21T01:34:10.323Z,7.68
2023-03-21T01:36:36.877Z,7.61
2023-03-21T01:39:04.259Z,7.53
2023-03-21T01:41:44.052Z,7.48
2023-03-21T01:44:17.259Z,7.47
2023-03-21T01:47:00.106Z,7.48
2023-03-21T01:49:38.621Z,7.39
2023-03-21T01:52:13.064Z,7.39
2023-03-21T01:54:43.180Z,7.27
2023-03-21T01:57:15.814Z,7.13
2023-03-21T01:59:50.228Z,7.02
2023-03-21T02:02:20.717Z,6.93
2023-03-21T02:04:51.001Z,6.89
2023-03-21T02:07:25.733Z,6.80
2023-03-21T02:09:53.270Z,6.75
2023-03-21T02:12:20.543Z,6.67
2023-03-21T02:14:49.504Z,6.68
2023-03-21T02:17:31.008Z,6.65
2023-03-21T02:20:11.724Z,6.60
2023-03-21T02:23:10.219Z,6.62
2023-03-21T02:25:48.627Z,6.61
2023-03-21T02:28:23.631Z,6.64
2023-03-21T02:31:14.370Z,6.62
2023-03-21T02:34:18.489Z,6.67
2023-03-21T02:36:50.782Z,6.72
2023-03-21T02:39:26.739Z,6.71
2023-03-21T02:42:17.726Z,6.75
2023-03-21T02:44:55.603Z,6.69
2023-03-21T02:47:37.245Z,6.65
2023-03-21T02:50:19.577Z,6.56
2023-03-21T02:52:48.606Z,6.54
2023-03-21T02:55:19.528Z,6.47
2023-03-21T02:57:49.839Z,6.46
2023-03-21T03:00:22.960Z,6.47
2023-03-21T03:02:54.585Z,6.47
2023-03-21T03:05:28.871Z,6.48
2023-03-21T03:08:17.296Z,6.47
2023-03-21T03:11:15.954Z,6.46
2023-03-21T03:14:21.014Z,6.39
2023-03-21T03:17:08.996Z,6.38
2023-03-21T03:19:51.455Z,6.37
2023-03-21T03:22:42.037Z,6.39
2023-03-21T03:25:23.145Z,6.34
2023-03-21T03:27:57.939Z,6.36
2023-03-21T03:30:32.320Z,6.33
2023-03-21T03:33:08.601Z,6.36
2023-03-21T03:35:35.002Z,6.38
2023-03-21T03:38:05.055Z,6.30
2023-03-21T03:40:42.120Z,6.19
2023-03-21T03:43:14.703Z,6.22
2023-03-21T03:45:49.831Z,6.24
2023-03-21T03:48:35.918Z,6.30
2023-03-21T03:51:13.863Z,6.31
2023-03-21T03:54:04.504Z,6.27
2023-03-21T03:56:31.646Z,6.17
2023-03-21T03:58:58.220Z,6.20
2023-03-21T04:01:24.647Z,6.23
2023-03-21T04:04:00.819Z,6.28
2023-03-21T04:06:33.618Z,6.28
2023-03-21T04:09:03.453Z,6.21
2023-03-21T04:11:31.963Z,6.26
2023-03-21T04:13:58.294Z,6.15
2023-03-21T04:16:25.980Z,6.14
2023-03-21T04:18:52.445Z,6.09
2023-03-21T04:21:19.225Z,6.13
2023-03-21T04:23:45.870Z,6.16
2023-03-21T04:26:12.198Z,6.21
2023-03-21T04:28:39.666Z,6.31
2023-03-21T04:31:16.121Z,6.35
2023-03-21T04:33:50.629Z,6.37
2023-03-21T04:36:25.029Z,6.44
2023-03-21T04:38:52.380Z,6.49
2023-03-21T04:41:19.352Z,6.50
2023-03-21T04:43:47.285Z,6.55
2023-03-21T04:46:13.689Z,6.57
2023-03-21T04:48:39.986Z,6.57
2023-03-21T04:51:06.581Z,6.58
2023-03-21T04:53:33.037Z,6.56
2023-03-21T04:56:00.702Z,6.54
2023-03-21T04:58:27.382Z,6.56
2023-03-21T05:00:53.805Z,6.59
2023-03-21T05:03:21.791Z,6.59
2023-03-21T05:05:48.439Z,6.63
2023-03-21T05:08:15.406Z,6.58
2023-03-21T05:10:43.209Z,6.54
2023-03-21T05:13:09.748Z,6.59
2023-03-21T05:15:36.257Z,6.54
2023-03-21T05:18:10.759Z,6.66
2023-03-21T05:20:43.999Z,6.77
2023-03-21T05:23:11.720Z,6.82
2023-03-21T05:25:40.128Z,6.89
2023-03-21T05:28:07.636Z,6.86
2023-03-21T05:30:34.381Z,6.95
2023-03-21T05:33:00.922Z,6.94
2023-03-21T05:35:28.037Z,6.95
2023-03-21T05:37:54.437Z,6.99
2023-03-21T05:40:21.209Z,7.01
2023-03-21T05:42:48.263Z,6.95
2023-03-21T05:45:15.822Z,6.98
2023-03-21T05:47:42.210Z,6.95
2023-03-21T05:50:09.507Z,6.94
2023-03-21T05:52:36.061Z,6.87
2023-03-21T05:55:03.161Z,6.93
2023-03-21T05:57:29.557Z,6.93
2023-03-21T05:59:56.092Z,6.98
2023-03-21T06:02:22.558Z,6.98
2023-03-21T06:04:48.905Z,7.04
2023-03-21T06:07:15.264Z,7.11
2023-03-21T06:09:41.686Z,7.22
2023-03-21T06:12:08.199Z,7.28
2023-03-21T06:14:34.530Z,7.33
2023-03-21T06:17:01.107Z,7.38
2023-03-21T06:19:27.513Z,7.39
2023-03-21T06:21:54.074Z,7.44
2023-03-21T06:24:21.038Z,7.47
2023-03-21T06:26:48.255Z,7.46
2023-03-21T06:29:14.977Z,7.47
2023-03-21T06:31:41.481Z,7.48
2023-03-21T06:34:08.050Z,7.53
2023-03-21T06:36:34.390Z,7.55
2023-03-21T06:39:00.799Z,7.56
2023-03-21T06:41:27.246Z,7.64
2023-03-21T06:43:53.668Z,7.69
2023-03-21T06:46:20.412Z,7.71
2023-03-21T06:48:46.850Z,7.87
2023-03-21T06:51:15.352Z,7.95
2023-03-21T06:53:42.067Z,7.95
2023-03-21T06:56:10.236Z,8.07
2023-03-21T06:58:36.665Z,8.15
2023-03-21T07:01:04.684Z,8.25
2023-03-21T07:03:31.598Z,8.24
2023-03-21T07:05:58.598Z,8.30
2023-03-21T07:08:25.197Z,8.36
2023-03-21T07:10:56.513Z,8.42
2023-03-21T07:13:22.949Z,8.52
2023-03-21T07:15:49.461Z,8.60
2023-03-21T07:18:15.981Z,8.65
2023-03-21T07:20:48.281Z,8.70
2023-03-21T07:23:14.710Z,8.86
2023-03-21T07:25:41.680Z,8.93
2023-03-21T07:28:09.161Z,8.93
2023-03-21T07:30:36.746Z,9.06
2023-03-21T07:33:03.559Z,9.15
2023-03-21T07:35:30.186Z,9.20
2023-03-21T07:37:56.476Z,9.24
2023-03-21T07:40:22.816Z,9.32
2023-03-21T07:42:50.832Z,9.42
2023-03-21T07:45:21.719Z,9.51
2023-03-21T07:47:48.643Z,9.57
2023-03-21T07:50:15.813Z,9.57
2023-03-21T07:52:42.225Z,9.65
2023-03-21T07:55:09.180Z,9.74
2023-03-21T07:57:37.359Z,9.87
2023-03-21T08:00:07.006Z,10.05
2023-03-21T08:02:33.454Z,10.20
2023-03-21T08:07:51.245Z,10.45
2023-03-21T08:10:18.853Z,10.54
2023-03-21T08:12:46.080Z,10.63
2023-03-21T08:15:13.883Z,10.73
2023-03-21T08:17:41.612Z,10.89
2023-03-21T08:20:12.149Z,10.96
2023-03-21T08:22:38.637Z,11.18
2023-03-21T08:25:07.963Z,11.25
2023-03-21T08:27:35.166Z,11.28
2023-03-21T08:30:01.960Z,11.37
2023-03-21T08:32:31.406Z,11.24
2023-03-21T08:35:02.656Z,11.22
2023-03-21T08:37:29.062Z,11.23
2023-03-21T08:39:55.367Z,11.37
2023-03-21T08:42:22.891Z,11.44
2023-03-21T08:44:49.469Z,11.50
2023-03-21T08:47:15.872Z,11.51
2023-03-21T08:49:45.522Z,11.53
2023-03-21T08:52:12.191Z,11.73
2023-03-21T08:54:38.657Z,11.80
2023-03-21T08:57:04.971Z,11.90
2023-03-21T08:59:31.403Z,11.96
2023-03-21T09:01:57.843Z,12.03
2023-03-21T09:04:25.862Z,11.90
2023-03-21T09:06:52.337Z,11.82
2023-03-21T09:09:18.848Z,11.83
2023-03-21T09:11:45.438Z,11.83
2023-03-21T09:14:11.794Z,11.93
2023-03-21T09:16:38.532Z,11.96
2023-03-21T09:19:08.418Z,11.99
2023-03-21T09:21:35.853Z,11.76
2023-03-21T09:24:02.790Z,11.77
2023-03-21T09:26:29.387Z,11.96
2023-03-21T09:28:56.160Z,11.93
2023-03-21T09:31:23.308Z,12.00
2023-03-21T09:33:51.004Z,12.21
2023-03-21T09:36:19.154Z,12.22
2023-03-21T09:38:46.882Z,12.36
2023-03-21T09:41:30.103Z,12.39
2023-03-21T09:44:25.496Z,12.39
2023-03-21T09:46:56.677Z,12.41
2023-03-21T09:49:31.959Z,12.55
2023-03-21T09:51:59.626Z,12.53
2023-03-21T09:54:30.566Z,12.61
2023-03-21T09:57:04.440Z,12.74
2023-03-21T09:59:38.029Z,12.67
2023-03-21T10:02:20.265Z,12.82
2023-03-21T10:04:46.929Z,12.92
2023-03-21T10:07:18.859Z,12.81
2023-03-21T10:09:47.124Z,12.74
2023-03-21T10:12:21.764Z,12.83
2023-03-21T10:14:51.930Z,12.82
2023-03-21T10:17:43.328Z,12.88
2023-03-21T10:20:24.964Z,12.72
2023-03-21T10:22:54.782Z,12.93
2023-03-21T10:25:28.068Z,12.77
2023-03-21T10:27:54.500Z,12.63
2023-03-21T10:30:42.136Z,12.47
2023-03-21T10:33:14.446Z,12.36
2023-03-21T10:35:43.780Z,12.38
2023-03-21T10:38:17.841Z,12.37
2023-03-21T10:40:44.810Z,12.35
2023-03-21T10:43:30.467Z,12.03
2023-03-21T10:45:57.664Z,11.86
2023-03-21T10:48:24.590Z,11.70
2023-03-21T10:50:54.616Z,11.69
2023-03-21T10:53:29.314Z,11.76
2023-03-21T10:56:02.914Z,11.76
2023-03-21T10:58:34.635Z,11.52
2023-03-21T11:01:04.727Z,11.54
2023-03-21T11:03:36.292Z,11.55
2023-03-21T11:06:11.350Z,11.56
2023-03-21T11:08:41.473Z,11.66
2023-03-21T11:11:12.261Z,11.66
2023-03-21T11:13:41.861Z,11.52
2023-03-21T11:16:22.821Z,11.44
2023-03-21T11:18:52.329Z,11.47
2023-03-21T11:21:21.514Z,11.36
2023-03-21T11:23:50.101Z,11.37
2023-03-21T11:26:23.996Z,11.36
2023-03-21T11:28:53.803Z,11.30
2023-03-21T11:31:21.336Z,11.16
2023-03-21T11:33:56.871Z,11.20
2023-03-21T11:36:23.308Z,11.17
2023-03-21T11:38:57.322Z,11.23
2023-03-21T11:41:28.430Z,11.29
2023-03-21T11:43:56.446Z,11.12
2023-03-21T11:46:28.035Z,11.10
2023-03-21T11:48:55.995Z,11.04
2023-03-21T11:51:43.557Z,11.15
2023-03-21T11:54:21.805Z,11.27
2023-03-21T11:56:54.391Z,11.24
2023-03-21T11:59:26.853Z,11.30
2023-03-21T12:02:32.135Z,11.25
2023-03-21T12:05:17.203Z,11.33
2023-03-21T12:08:05.443Z,11.32
2023-03-21T12:10:54.739Z,11.23
2023-03-21T12:13:36.470Z,11.13
2023-03-21T12:16:23.064Z,11.17
2023-03-21T12:19:03.735Z,11.20
2023-03-21T12:21:34.820Z,11.14
2023-03-21T12:24:12.048Z,11.20
2023-03-21T12:27:00.858Z,11.16
2023-03-21T12:30:12.094Z,11.10
2023-03-21T12:32:53.071Z,11.09
2023-03-21T12:35:27.069Z,10.97
2023-03-21T12:38:02.161Z,11.01
2023-03-21T12:40:49.528Z,11.05
2023-03-21T12:43:33.770Z,11.05
2023-03-21T12:46:03.886Z,11.15
2023-03-21T12:48:39.494Z,11.18
2023-03-21T12:51:12.849Z,11.08
2023-03-21T12:53:53.803Z,11.09
2023-03-21T12:56:27.149Z,11.14
2023-03-21T12:59:02.921Z,11.05
2023-03-21T13:01:29.925Z,11.05
2023-03-21T13:04:09.593Z,10.99
2023-03-21T13:06:37.751Z,11.00
2023-03-21T13:09:21.288Z,11.04
2023-03-21T13:11:53.863Z,10.88
2023-03-21T13:14:30.653Z,10.90
2023-03-21T13:17:04.850Z,10.92
2023-03-21T13:19:41.953Z,10.91
2023-03-21T13:22:29.676Z,10.88
2023-03-21T13:25:19.002Z,10.89
2023-03-21T13:27:52.772Z,10.84
2023-03-21T13:30:23.405Z,10.79
2023-03-21T13:32:51.398Z,10.78
2023-03-21T13:35:35.241Z,10.81
2023-03-21T13:38:04.236Z,10.85
2023-03-21T13:40:48.533Z,10.82
2023-03-21T13:43:45.788Z,10.75
2023-03-21T13:46:15.368Z,10.72
2023-03-21T13:49:09.696Z,10.71
2023-03-21T13:51:35.990Z,10.78
2023-03-21T13:54:08.171Z,10.77
2023-03-21T13:56:46.945Z,10.74
2023-03-21T13:59:35.228Z,10.71
2023-03-21T14:02:20.873Z,10.71
2023-03-21T14:05:04.470Z,10.66
2023-03-21T14:07:36.548Z,10.63
2023-03-21T14:10:06.916Z,10.60
2023-03-21T14:12:39.958Z,10.56
2023-03-21T14:15:20.186Z,10.62
2023-03-21T14:17:58.824Z,10.55
2023-03-21T14:20:30.966Z,10.58
2023-03-21T14:22:57.682Z,10.60
2023-03-21T14:25:29.203Z,10.64
2023-03-21T14:28:01.410Z,10.52
2023-03-21T14:30:32.275Z,10.50
2023-03-21T14:33:18.508Z,10.44
2023-03-21T14:35:47.497Z,10.51
2023-03-21T14:38:22.557Z,10.47
2023-03-21T14:40:52.481Z,10.52
2023-03-21T14:43:20.133Z,10.43
2023-03-21T14:45:55.946Z,10.48
2023-03-21T14:48:33.745Z,10.49
2023-03-21T14:51:05.936Z,10.45
2023-03-21T14:53:36.848Z,10.50
2023-03-21T14:56:17.325Z,10.55
2023-03-21T14:58:46.258Z,10.65
2023-03-21T15:01:22.787Z,10.63
2023-03-21T15:03:51.371Z,10.60
2023-03-21T15:06:19.839Z,10.62
2023-03-21T15:09:01.685Z,10.68
2023-03-21T15:11:35.955Z,10.72
2023-03-21T15:14:11.556Z,10.70
2023-03-21T15:16:39.272Z,10.68
2023-03-21T15:19:07.152Z,10.72
2023-03-21T15:21:44.170Z,10.75
2023-03-21T15:24:24.179Z,10.75
2023-03-21T15:26:54.691Z,10.72
2023-03-21T15:29:21.645Z,10.77
2023-03-21T15:31:48.316Z,10.77
2023-03-21T15:34:24.513Z,10.80
2023-03-21T15:36:57.385Z,10.87
2023-03-21T15:39:24.506Z,10.88
2023-03-21T15:42:23.941Z,10.75
2023-03-21T15:44:53.189Z,10.81
2023-03-21T15:47:43.589Z,10.86
2023-03-21T15:50:24.666Z,10.83
2023-03-21T15:52:52.379Z,10.79
2023-03-21T15:55:26.827Z,10.82
2023-03-21T15:58:04.630Z,10.82
2023-03-21T16:00:39.269Z,10.88
2023-03-21T16:03:35.652Z,10.84
2023-03-21T16:06:10.152Z,10.79
2023-03-21T16:08:44.555Z,10.79
2023-03-21T16:11:29.328Z,10.80
2023-03-21T16:13:56.563Z,10.74
2023-03-21T16:16:28.840Z,10.78
2023-03-21T16:18:57.675Z,10.71
2023-03-21T16:21:30.538Z,10.77
2023-03-21T16:23:58.124Z,10.74
2023-03-21T16:26:28.594Z,10.69
2023-03-21T16:28:55.284Z,10.64
2023-03-21T16:31:24.820Z,10.61
2023-03-21T16:33:51.797Z,10.62
2023-03-21T16:36:20.160Z,10.63
2023-03-21T16:38:49.501Z,10.57
2023-03-21T16:41:16.474Z,10.56
2023-03-21T16:43:43.814Z,10.55
2023-03-21T16:46:15.574Z,10.55
2023-03-21T16:48:43.528Z,10.52
2023-03-21T16:51:14.850Z,10.52
2023-03-21T16:53:41.282Z,10.49
2023-03-21T16:56:17.149Z,10.47
2023-03-21T16:58:43.813Z,10.47
2023-03-21T17:01:21.731Z,10.45
2023-03-21T17:03:48.691Z,10.43
2023-03-21T17:06:18.017Z,10.40
2023-03-21T17:08:45.400Z,10.38
2023-03-21T17:11:16.186Z,10.36
2023-03-21T17:13:43.723Z,10.38
2023-03-21T17:16:12.953Z,10.34
2023-03-21T17:18:39.701Z,10.31
2023-03-21T17:21:20.665Z,10.28
2023-03-21T17:23:47.140Z,10.24
2023-03-21T17:26:16.002Z,10.22
2023-03-21T17:28:42.417Z,10.25
2023-03-21T17:31:17.490Z,10.24
2023-03-21T17:33:45.076Z,10.18
2023-03-21T17:36:17.583Z,10.16
2023-03-21T17:38:48.546Z,10.15
2023-03-21T17:41:17.306Z,10.10
2023-03-21T17:43:44.168Z,10.10
2023-03-21T17:46:14.017Z,10.06
2023-03-21T17:48:41.134Z,10.04
2023-03-21T17:51:08.456Z,10.00
2023-03-21T17:53:34.786Z,9.97
2023-03-21T17:56:01.178Z,9.90
2023-03-21T17:58:28.328Z,9.88
2023-03-21T18:00:54.689Z,9.87
2023-03-21T18:03:21.175Z,9.84
2023-03-21T18:05:47.550Z,9.80
2023-03-21T18:08:13.889Z,9.78
2023-03-21T18:10:41.779Z,9.70
2023-03-21T18:13:08.534Z,9.69
2023-03-21T18:15:37.930Z,9.64
2023-03-21T18:18:05.174Z,9.63
2023-03-21T18:23:19.180Z,9.49
2023-03-21T18:25:45.751Z,9.37
2023-03-21T18:28:12.929Z,9.42
2023-03-21T18:33:27.301Z,9.36
2023-03-21T18:35:58.754Z,9.31
2023-03-21T18:38:27.380Z,9.32
2023-03-21T18:40:54.035Z,9.31
2023-03-21T18:44:00.771Z,9.35
2023-03-21T18:46:07.477Z,9.32
2023-03-21T18:48:35.642Z,9.29
2023-03-21T18:51:02.733Z,9.28
2023-03-21T18:53:29.718Z,9.25
2023-03-21T18:55:56.013Z,9.19
2023-03-21T18:58:22.903Z,9.21
2023-03-21T19:00:51.461Z,9.17
2023-03-21T19:03:30.096Z,9.10
2023-03-21T19:06:03.512Z,9.03
2023-03-21T19:08:30.774Z,8.90
2023-03-21T19:11:00.115Z,8.93
2023-03-21T19:13:29.714Z,8.94
2023-03-21T19:15:56.361Z,8.90
2023-03-21T19:18:53.443Z,8.89
2023-03-21T19:21:09.245Z,8.87
2023-03-21T19:23:59.250Z,8.90
2023-03-21T19:26:22.216Z,8.89
2023-03-21T19:28:48.679Z,8.97
2023-03-21T19:31:15.247Z,8.93
2023-03-21T19:33:41.796Z,8.97
2023-03-21T19:36:18.061Z,8.80
2023-03-21T19:38:48.110Z,8.74
2023-03-21T19:41:14.506Z,8.74
2023-03-21T19:43:52.744Z,8.65
2023-03-21T19:46:23.033Z,8.54
2023-03-21T19:48:50.151Z,8.60
2023-03-21T19:51:32.962Z,8.52
2023-03-21T19:54:03.219Z,8.54
2023-03-21T19:56:31.475Z,8.49
2023-03-21T19:58:57.964Z,8.45
2023-03-21T20:01:24.705Z,8.37
2023-03-21T20:03:52.180Z,8.39
2023-03-21T20:06:18.690Z,8.32
2023-03-21T20:11:32.793Z,8.33
2023-03-21T20:13:59.947Z,8.32
2023-03-21T20:16:33.665Z,8.30
2023-03-21T20:19:00.835Z,8.16
2023-03-21T20:21:33.821Z,8.20
2023-03-21T20:24:03.705Z,8.20
2023-03-21T20:26:30.960Z,8.22
2023-03-21T20:29:27.921Z,8.25
2023-03-21T20:31:44.265Z,8.15
2023-03-21T20:34:10.538Z,8.24
2023-03-21T20:36:40.545Z,8.23
2023-03-21T20:39:07.579Z,8.07
2023-03-21T20:41:34.180Z,8.10
2023-03-21T20:46:50.004Z,8.00
2023-03-21T20:49:16.416Z,7.97
2023-03-21T20:54:29.562Z,7.88
2023-03-21T20:56:56.566Z,7.89
2023-03-21T20:59:27.102Z,7.81
2023-03-21T21:01:55.734Z,7.78
2023-03-21T21:04:23.171Z,7.75
2023-03-21T21:06:57.110Z,7.76
2023-03-21T21:09:23.486Z,7.67
2023-03-21T21:12:06.137Z,7.56
2023-03-21T21:14:35.725Z,7.58
2023-03-21T21:17:17.059Z,7.53
2023-03-21T21:19:49.870Z,7.41
2023-03-21T21:22:17.232Z,7.42
2023-03-21T21:24:44.510Z,7.38
2023-03-21T21:27:10.885Z,7.31
2023-03-21T21:29:37.384Z,7.33
2023-03-21T21:32:05.184Z,7.29
2023-03-21T21:34:31.697Z,7.26
2023-03-21T21:36:58.099Z,7.19
2023-03-21T21:39:26.305Z,7.13
2023-03-21T21:41:53.303Z,7.13
2023-03-21T21:44:19.801Z,7.14
2023-03-21T21:46:46.196Z,6.96
2023-03-21T21:49:12.618Z,7.01
2023-03-21T21:51:41.062Z,6.99
2023-03-21T21:54:07.379Z,6.74
2023-03-21T21:56:38.411Z,6.86
2023-03-21T21:59:05.370Z,6.83
2023-03-21T22:01:34.601Z,6.76
2023-03-21T22:04:08.144Z,6.76
2023-03-21T22:06:34.663Z,6.72
2023-03-21T22:09:01.166Z,6.81
2023-03-21T22:11:27.809Z,6.81
2023-03-21T22:13:54.150Z,6.78
2023-03-21T22:16:20.937Z,6.83
2023-03-21T22:18:47.499Z,6.83
2023-03-21T22:21:13.874Z,6.73
2023-03-21T22:23:41.340Z,6.34
2023-03-21T22:26:08.118Z,6.30
2023-03-21T22:28:34.504Z,6.26
2023-03-21T22:31:09.110Z,6.21
2023-03-21T22:33:35.879Z,6.12
2023-03-21T22:36:02.209Z,6.18
2023-03-21T22:38:28.653Z,6.14
2023-03-21T22:40:59.402Z,6.25
2023-03-21T22:43:26.070Z,6.24
2023-03-21T22:45:52.583Z,6.16
2023-03-21T22:48:19.875Z,6.23
2023-03-21T22:50:46.313Z,6.11
2023-03-21T22:53:12.719Z,6.18
2023-03-21T22:55:39.385Z,6.26
2023-03-21T22:58:06.362Z,6.30
2023-03-21T23:00:33.469Z,6.26
2023-03-21T23:03:00.056Z,6.26
2023-03-21T23:05:26.698Z,6.18
2023-03-21T23:07:53.435Z,6.09
2023-03-21T23:10:19.930Z,6.11
2023-03-21T23:12:46.379Z,6.03
2023-03-21T23:15:12.796Z,5.96
2023-03-21T23:17:39.162Z,5.94
2023-03-21T23:20:07.766Z,5.89
2023-03-21T23:22:35.448Z,5.93
2023-03-21T23:25:02.678Z,5.99
2023-03-21T23:27:29.460Z,5.98
2023-03-21T23:29:56.746Z,5.92
2023-03-21T23:32:23.438Z,6.03
2023-03-21T23:34:49.768Z,6.04
2023-03-21T23:37:16.160Z,6.04
2023-03-21T23:39:45.005Z,6.03
2023-03-21T23:42:11.365Z,6.06
2023-03-21T23:44:37.866Z,6.06
2023-03-21T23:47:04.306Z,6.04
2023-03-21T23:49:33.565Z,6.04
2023-03-21T23:52:00.132Z,6.12
2023-03-21T23:54:26.559Z,6.10
2023-03-21T23:56:53.070Z,6.10
2023-03-21T23:59:19.434Z,6.07
